Time;durP1;ratioP1;P1;durP2;ratioP2;P2;SDS_P1;SDS_P2;PMS_P1;PMS_P2;Temp;Humidity;BMP_temperature;BMP_pressure;BME280_temperature;BME280_humidity;BME280_pressure;Samples;Min_cycle;Max_cycle;Signal;HPM_P1;HPM_P2
2023/01/16 00:01:17;;;;;;;4.03;3.73;;;;;;;1.59;100.00;95593.72;5055206;28;20185;-56
2023/01/16 00:03:43;;;;;;;4.97;4.20;;;;;;;1.59;100.00;95598.91;5073331;28;20696;-58
2023/01/16 00:06:09;;;;;;;3.87;3.67;;;;;;;1.66;100.00;95597.13;5073264;28;20165;-59
2023/01/16 00:08:34;;;;;;;3.87;3.57;;;;;;;1.75;100.00;95585.56;5072947;28;20637;-57
2023/01/16 00:11:00;;;;;;;4.00;3.60;;;;;;;1.81;100.00;95579.59;5073020;28;20209;-60
2023/01/16 00:13:25;;;;;;;3.60;3.30;;;;;;;1.82;100.00;95568.28;5073098;28;20197;-60
2023/01/16 00:15:51;;;;;;;4.27;4.07;;;;;;;1.77;100.00;95573.25;5073093;28;20204;-58
2023/01/16 00:18:17;;;;;;;4.47;4.10;;;;;;;1.83;100.00;95576.81;5072601;28;20177;-57
2023/01/16 00:20:43;;;;;;;4.60;4.23;;;;;;;1.90;99.86;95572.41;5072790;28;20177;-58
2023/01/16 00:23:09;;;;;;;3.50;3.40;;;;;;;1.89;99.66;95555.34;5072879;28;20283;-57
2023/01/16 00:25:39;;;;;;;3.97;3.70;;;;;;;2.02;99.17;95556.09;5073098;28;20162;-56
2023/01/16 00:28:05;;;;;;;4.20;3.80;;;;;;;1.94;98.91;95550.38;5072747;28;20219;-57
2023/01/16 00:30:30;;;;;;;3.93;3.63;;;;;;;1.91;99.33;95548.19;5073128;28;20617;-59
2023/01/16 00:32:56;;;;;;;5.40;4.00;;;;;;;1.88;99.47;95549.38;5072840;28;20211;-58
2023/01/16 00:35:21;;;;;;;4.70;4.17;;;;;;;1.93;98.65;95533.28;5073028;28;20162;-57
2023/01/16 00:37:46;;;;;;;3.73;3.43;;;;;;;1.96;98.97;95530.28;5072593;28;20177;-58
2023/01/16 00:40:12;;;;;;;4.30;4.00;;;;;;;1.85;99.47;95526.53;5072692;28;20211;-60
2023/01/16 00:42:37;;;;;;;4.43;3.60;;;;;;;1.85;99.04;95529.13;5072484;28;20200;-56
2023/01/16 00:45:03;;;;;;;4.57;3.67;;;;;;;1.82;99.56;95524.38;5071761;28;20191;-62
2023/01/16 00:47:29;;;;;;;3.77;3.47;;;;;;;1.91;99.28;95510.22;5052703;28;20209;-60
2023/01/16 00:49:54;;;;;;;3.53;3.33;;;;;;;1.75;99.09;95505.50;5052747;28;20186;-58
2023/01/16 00:52:19;;;;;;;5.27;3.70;;;;;;;1.81;99.17;95502.13;5052520;28;20227;-58
2023/01/16 00:54:45;;;;;;;4.40;3.43;;;;;;;1.83;98.89;95496.75;5061625;28;20659;-59
2023/01/16 00:57:11;;;;;;;3.40;3.23;;;;;;;1.85;98.54;95494.75;5076564;28;20187;-60
2023/01/16 00:59:36;;;;;;;3.40;3.20;;;;;;;1.85;98.85;95498.13;5074090;28;20289;-58
2023/01/16 01:02:01;;;;;;;6.07;4.00;;;;;;;1.85;97.60;95489.56;5076618;28;20291;-58
2023/01/16 01:04:28;;;;;;;4.13;3.80;;;;;;;1.85;98.29;95476.66;5058711;28;20200;-61
2023/01/16 01:06:54;;;;;;;3.77;3.57;;;;;;;1.83;98.05;95483.84;5076932;28;20171;-60
2023/01/16 01:09:19;;;;;;;4.17;3.77;;;;;;;1.81;97.92;95480.66;5076629;28;20169;-58
2023/01/16 01:11:45;;;;;;;4.03;3.73;;;;;;;1.76;99.43;95476.09;5057706;28;20250;-58
2023/01/16 01:14:10;;;;;;;4.97;3.60;;;;;;;1.63;100.00;95473.56;5076594;28;20200;-60
2023/01/16 01:16:35;;;;;;;3.97;3.67;;;;;;;1.58;100.00;95466.41;5076490;28;20193;-60
2023/01/16 01:19:01;;;;;;;3.63;3.43;;;;;;;1.46;100.00;95462.88;5076710;28;20170;-59
2023/01/16 01:21:26;;;;;;;3.63;3.43;;;;;;;1.47;100.00;95450.75;5076398;28;20639;-60
2023/01/16 01:23:52;;;;;;;5.57;3.80;;;;;;;1.35;100.00;95442.03;5076618;28;20288;-60
2023/01/16 01:26:18;;;;;;;9.00;4.10;;;;;;;1.28;100.00;95443.88;5075392;28;20181;-60
2023/01/16 01:28:44;;;;;;;4.70;3.50;;;;;;;1.33;100.00;95439.69;5058074;28;20185;-59
2023/01/16 01:31:11;;;;;;;3.77;3.47;;;;;;;1.25;100.00;95432.16;5076284;28;20196;-59
2023/01/16 01:33:38;;;;;;;4.20;3.30;;;;;;;1.22;100.00;95428.19;5076148;28;20642;-60
2023/01/16 01:36:04;;;;;;;3.63;3.37;;;;;;;1.27;100.00;95430.16;5076156;28;20199;-59
2023/01/16 01:38:30;;;;;;;4.03;3.77;;;;;;;1.27;100.00;95435.34;5076239;28;20183;-59
2023/01/16 01:40:55;;;;;;;3.70;3.27;;;;;;;1.29;100.00;95433.31;5075851;28;20197;-59
2023/01/16 01:43:21;;;;;;;4.60;4.00;;;;;;;1.34;100.00;95427.59;5075933;28;20252;-59
2023/01/16 01:45:54;;;;;;;4.80;4.10;;;;;;;1.27;100.00;95424.22;5075853;28;20188;-61
2023/01/16 01:48:29;;;;;;;4.03;3.70;;;;;;;1.27;100.00;95422.44;5075912;28;20181;-60
2023/01/16 01:51:04;;;;;;;6.80;4.20;;;;;;;1.22;100.00;95420.47;5075878;28;20169;-60
2023/01/16 01:53:35;;;;;;;4.60;4.30;;;;;;;1.25;100.00;95419.25;5075852;28;20536;-61
2023/01/16 01:56:08;;;;;;;5.03;4.47;;;;;;;1.24;100.00;95415.06;5055623;28;20186;-61
2023/01/16 01:58:34;;;;;;;5.93;4.33;;;;;;;1.23;100.00;95395.41;5061777;28;20294;-60
2023/01/16 02:01:02;;;;;;;4.50;3.97;;;;;;;1.23;100.00;95393.63;5075245;28;20181;-57
2023/01/16 02:03:45;;;;;;;4.67;4.30;;;;;;;1.29;100.00;95375.75;5075834;28;20208;-60
2023/01/16 02:06:19;;;;;;;5.33;4.53;;;;;;;1.31;100.00;95373.78;5074928;28;20686;-59
2023/01/16 02:08:48;;;;;;;4.53;4.13;;;;;;;1.30;100.00;95367.03;5075404;28;20188;-60
2023/01/16 02:11:26;;;;;;;4.57;4.23;;;;;;;1.27;100.00;95354.53;5075469;28;20173;-59
2023/01/16 02:13:59;;;;;;;4.80;4.37;;;;;;;1.24;100.00;95347.97;5076107;28;20165;-58
2023/01/16 02:19:50;;;;;;;8.23;4.37;;;;;;;1.14;100.00;95317.47;5037546;28;20283;-60
2023/01/16 02:22:43;;;;;;;3.47;3.17;;;;;;;1.18;100.00;95310.88;5072340;28;20274;-60
2023/01/16 02:25:27;;;;;;;5.10;3.63;;;;;;;1.10;100.00;95300.03;5075105;28;20542;-60
2023/01/16 02:28:08;;;;;;;6.33;3.77;;;;;;;1.12;100.00;95295.44;5055144;28;20175;-60
2023/01/16 02:31:00;;;;;;;3.93;3.80;;;;;;;1.19;100.00;95288.47;5055075;28;20574;-60
2023/01/16 02:33:51;;;;;;;4.03;3.73;;;;;;;1.13;100.00;95284.13;5055212;28;20198;-60
2023/01/16 02:36:29;;;;;;;3.97;3.67;;;;;;;1.09;100.00;95276.00;5061818;28;20227;-60
2023/01/16 02:39:11;;;;;;;3.80;3.50;;;;;;;1.09;100.00;95275.22;5074886;28;20169;-60
2023/01/16 02:41:45;;;;;;;3.77;3.57;;;;;;;1.05;100.00;95272.25;5074440;28;20215;-60
2023/01/16 02:44:36;;;;;;;5.63;3.60;;;;;;;1.08;100.00;95258.16;5074131;28;20681;-60
2023/01/16 02:47:31;;;;;;;3.90;3.60;;;;;;;1.15;100.00;95266.66;5074394;28;20653;-60
2023/01/16 02:50:23;;;;;;;3.53;3.37;;;;;;;1.16;100.00;95245.81;5074629;28;20181;-60
2023/01/16 02:53:26;;;;;;;4.33;3.93;;;;;;;1.10;100.00;95238.09;5057097;28;20217;-60
2023/01/16 02:55:57;;;;;;;4.00;3.80;;;;;;;1.18;100.00;95232.69;5032723;28;20554;-59
2023/01/16 02:58:26;;;;;;;10.23;4.00;;;;;;;1.17;100.00;95225.97;5072311;28;20294;-59
2023/01/16 03:00:56;;;;;;;4.40;3.80;;;;;;;1.24;100.00;95213.81;5073836;28;20665;-64
2023/01/16 03:03:37;;;;;;;3.73;3.53;;;;;;;1.21;100.00;95202.13;5074355;28;20205;-61
2023/01/16 03:06:28;;;;;;;3.97;3.67;;;;;;;1.17;100.00;95188.03;5056519;28;20180;-59
2023/01/16 03:09:21;;;;;;;3.83;3.60;;;;;;;1.18;100.00;95188.81;5073788;28;20251;-60
2023/01/16 03:12:27;;;;;;;4.20;3.80;;;;;;;1.28;100.00;95171.13;5056176;28;20304;-60
2023/01/16 03:15:26;;;;;;;4.10;3.90;;;;;;;1.27;100.00;95164.38;5066933;28;20200;-60
2023/01/16 03:18:03;;;;;;;4.13;3.83;;;;;;;1.29;100.00;95151.25;5046442;28;20196;-60
2023/01/16 03:20:53;;;;;;;4.00;3.70;;;;;;;1.23;100.00;95148.50;5073933;28;20303;-60
2023/01/16 03:23:33;;;;;;;4.13;3.63;;;;;;;1.21;100.00;95131.66;5074463;28;20217;-59
2023/01/16 03:26:04;;;;;;;3.50;3.30;;;;;;;1.16;100.00;95132.31;5073612;28;20281;-59
2023/01/16 03:28:43;;;;;;;3.60;3.40;;;;;;;1.10;100.00;95127.19;5073512;28;20189;-55
2023/01/16 03:31:11;;;;;;;4.07;3.73;;;;;;;1.01;100.00;95120.66;5074197;28;20269;-54
2023/01/16 03:33:43;;;;;;;4.07;3.87;;;;;;;1.05;100.00;95119.28;5073796;28;20193;-55
2023/01/16 03:36:21;;;;;;;3.97;3.67;;;;;;;0.93;100.00;95120.94;5073802;28;20161;-57
2023/01/16 03:38:48;;;;;;;3.70;3.40;;;;;;;1.00;100.00;95112.16;5073498;28;20173;-56
2023/01/16 03:41:19;;;;;;;3.70;3.50;;;;;;;0.90;100.00;95111.81;5073559;28;20181;-57
2023/01/16 03:43:48;;;;;;;4.23;3.63;;;;;;;0.91;100.00;95100.50;5073164;28;20193;-55
2023/01/16 03:46:19;;;;;;;3.50;3.30;;;;;;;0.94;100.00;95096.72;5072927;28;20196;-55
2023/01/16 03:48:50;;;;;;;4.00;3.67;;;;;;;0.93;100.00;95092.56;5073201;28;20228;-56
2023/01/16 03:51:27;;;;;;;5.87;3.63;;;;;;;1.04;100.00;95081.56;5073259;28;20192;-59
2023/01/16 03:54:36;;;;;;;4.00;3.60;;;;;;;0.93;100.00;95067.56;5073645;28;20180;-57
2023/01/16 03:57:16;;;;;;;4.67;3.67;;;;;;;0.88;100.00;95051.16;4956251;28;20207;-58
2023/01/16 03:59:44;;;;;;;4.47;4.00;;;;;;;0.85;100.00;95049.75;5043716;28;20236;-57
2023/01/16 04:02:20;;;;;;;4.17;3.30;;;;;;;0.87;100.00;95049.56;5055249;28;20236;-59
2023/01/16 04:05:15;;;;;;;4.07;3.80;;;;;;;0.87;100.00;95037.47;5073237;28;20637;-56
2023/01/16 04:07:54;;;;;;;3.87;3.50;;;;;;;0.88;100.00;95026.16;5072978;28;20228;-60
2023/01/16 04:10:25;;;;;;;4.23;3.80;;;;;;;0.94;100.00;95002.09;5072976;28;20185;-60
2023/01/16 04:12:55;;;;;;;3.97;3.67;;;;;;;0.82;100.00;95008.94;5073371;28;20197;-57
2023/01/16 04:15:23;;;;;;;4.03;3.67;;;;;;;0.84;100.00;95004.34;5073173;28;20606;-58
2023/01/16 04:17:49;;;;;;;3.60;3.43;;;;;;;0.84;100.00;95004.34;5072948;28;20173;-56
2023/01/16 04:20:14;;;;;;;3.80;3.50;;;;;;;0.84;100.00;94981.13;5072782;28;20181;-59
2023/01/16 04:22:41;;;;;;;4.43;3.73;;;;;;;0.86;100.00;94981.72;5072072;28;20666;-59
2023/01/16 04:25:08;;;;;;;3.83;3.60;;;;;;;0.84;100.00;94966.44;5072997;28;20208;-59
2023/01/16 04:27:34;;;;;;;4.53;3.83;;;;;;;0.82;100.00;94965.88;5073132;28;20217;-60
2023/01/16 04:29:59;;;;;;;3.53;3.33;;;;;;;0.89;100.00;94962.47;5072517;28;20185;-59
2023/01/16 04:32:25;;;;;;;3.97;3.30;;;;;;;0.92;100.00;94952.50;5072956;28;20205;-60
2023/01/16 04:34:50;;;;;;;4.30;3.90;;;;;;;0.90;100.00;94939.03;5072740;28;20201;-63
2023/01/16 04:37:17;;;;;;;3.83;3.53;;;;;;;0.86;100.00;94932.72;5072499;28;20181;-60
2023/01/16 04:39:43;;;;;;;5.53;3.93;;;;;;;0.83;100.00;94928.00;5072745;28;20717;-60
2023/01/16 04:42:09;;;;;;;4.13;3.83;;;;;;;0.93;100.00;94922.34;5072870;28;20279;-60
2023/01/16 04:44:35;;;;;;;4.30;3.77;;;;;;;0.89;100.00;94909.13;5072075;28;20205;-60
2023/01/16 04:47:00;;;;;;;4.03;3.73;;;;;;;0.94;100.00;94909.25;5072801;28;20205;-59
2023/01/16 04:49:26;;;;;;;3.87;3.67;;;;;;;1.02;100.00;94898.66;5071711;28;20223;-58
2023/01/16 04:51:52;;;;;;;3.80;3.47;;;;;;;0.91;100.00;94886.47;5072212;28;20228;-60
2023/01/16 04:54:19;;;;;;;3.70;3.37;;;;;;;0.85;100.00;94879.56;5073025;28;20181;-59
2023/01/16 04:57:04;;;;;;;3.60;3.40;;;;;;;0.77;100.00;94870.34;5073106;28;20268;-60
2023/01/16 04:59:29;;;;;;;7.60;3.90;;;;;;;0.77;100.00;94859.25;5044110;28;20317;-60
2023/01/16 05:01:55;;;;;;;6.27;3.87;;;;;;;0.74;100.00;94850.13;5032901;28;20600;-60
2023/01/16 05:04:20;;;;;;;4.43;3.50;;;;;;;0.71;100.00;94845.41;5032971;28;20720;-60
2023/01/16 05:06:46;;;;;;;4.13;3.80;;;;;;;0.67;100.00;94836.50;5033043;28;20600;-62
2023/01/16 05:09:11;;;;;;;3.67;3.47;;;;;;;0.71;100.00;94837.69;5032586;28;20175;-62
2023/01/16 05:11:37;;;;;;;3.93;3.70;;;;;;;0.69;100.00;94834.50;5015244;28;20718;-60
2023/01/16 05:14:07;;;;;;;3.80;3.40;;;;;;;0.70;100.00;94825.00;5033318;28;20166;-60
2023/01/16 05:16:33;;;;;;;3.77;3.57;;;;;;;0.61;100.00;94815.97;5033121;28;20186;-60
2023/01/16 05:18:59;;;;;;;4.00;3.70;;;;;;;0.62;100.00;94808.00;5013619;28;20167;-59
2023/01/16 05:21:24;;;;;;;4.23;3.93;;;;;;;0.66;100.00;94800.66;5032502;28;20163;-60
2023/01/16 05:23:50;;;;;;;6.93;3.90;;;;;;;0.55;100.00;94789.25;5032767;28;20697;-59
2023/01/16 05:26:16;;;;;;;4.27;3.97;;;;;;;0.58;100.00;94791.41;5032601;28;20163;-57
2023/01/16 05:28:41;;;;;;;4.13;3.83;;;;;;;0.66;100.00;94775.66;5032857;28;20191;-59
2023/01/16 05:31:07;;;;;;;4.50;4.10;;;;;;;0.62;100.00;94777.06;5032205;28;20182;-58
2023/01/16 05:33:32;;;;;;;4.80;4.33;;;;;;;0.62;100.00;94769.34;5032209;28;20207;-57
2023/01/16 05:35:58;;;;;;;4.13;3.73;;;;;;;0.66;100.00;94765.34;5032511;28;20220;-62
2023/01/16 05:38:23;;;;;;;4.13;3.73;;;;;;;0.66;100.00;94765.34;5032510;28;20167;-58
2023/01/16 05:40:49;;;;;;;4.77;3.93;;;;;;;0.65;100.00;94755.25;5032694;28;20186;-58
2023/01/16 05:43:14;;;;;;;3.77;3.47;;;;;;;0.65;100.00;94743.16;5035645;28;20225;-61
2023/01/16 05:45:40;;;;;;;5.43;3.90;;;;;;;0.73;100.00;94734.34;5017675;28;20255;-63
2023/01/16 05:48:06;;;;;;;4.17;3.77;;;;;;;0.66;100.00;94724.13;5018221;28;20226;-60
2023/01/16 05:50:32;;;;;;;3.73;3.40;;;;;;;0.68;100.00;94719.50;5035659;28;20674;-60
2023/01/16 05:52:57;;;;;;;3.83;3.47;;;;;;;0.69;100.00;94710.00;5035905;28;20564;-59
2023/01/16 05:55:27;;;;;;;3.87;3.57;;;;;;;0.69;100.00;94704.84;5035840;28;20178;-58
2023/01/16 05:57:53;;;;;;;4.93;3.97;;;;;;;0.67;100.00;94699.88;5017600;28;20237;-64
2023/01/16 06:00:19;;;;;;;4.30;4.00;;;;;;;0.65;100.00;94685.66;5072706;28;20260;-63
2023/01/16 06:02:46;;;;;;;4.47;3.63;;;;;;;0.61;100.00;94681.94;5075654;28;20208;-61
2023/01/16 06:05:12;;;;;;;4.43;4.10;;;;;;;0.62;100.00;94679.13;5075454;28;20601;-64
2023/01/16 06:07:37;;;;;;;4.17;3.80;;;;;;;0.67;100.00;94673.34;5075366;28;20184;-61
2023/01/16 06:10:04;;;;;;;5.40;4.90;;;;;;;0.63;100.00;94667.84;5075086;28;20589;-61
2023/01/16 06:12:31;;;;;;;4.30;3.93;;;;;;;0.63;100.00;94656.72;5075776;28;20595;-59
2023/01/16 06:14:57;;;;;;;4.67;3.47;;;;;;;0.69;100.00;94650.72;5075315;28;20241;-59
2023/01/16 06:17:23;;;;;;;5.50;3.60;;;;;;;0.70;100.00;94640.19;5075702;28;20248;-61
2023/01/16 06:19:48;;;;;;;4.80;3.73;;;;;;;0.71;100.00;94634.03;5075711;28;20169;-58
2023/01/16 06:22:14;;;;;;;3.30;3.10;;;;;;;0.78;100.00;94624.41;5057339;28;20201;-57
2023/01/16 06:24:39;;;;;;;3.70;3.40;;;;;;;0.80;100.00;94613.88;5075205;28;20669;-57
2023/01/16 06:27:05;;;;;;;4.30;3.70;;;;;;;0.74;100.00;94607.00;5075450;28;20208;-58
2023/01/16 06:29:30;;;;;;;4.00;3.70;;;;;;;0.80;100.00;94603.56;5075252;28;20181;-59
2023/01/16 06:31:56;;;;;;;4.13;3.83;;;;;;;0.79;100.00;94597.63;5074951;28;20209;-60
2023/01/16 06:34:21;;;;;;;4.63;4.27;;;;;;;0.82;100.00;94588.66;5074569;28;20173;-59
2023/01/16 06:36:48;;;;;;;4.63;4.20;;;;;;;0.76;100.00;94589.56;5074821;28;20654;-60
2023/01/16 06:39:14;;;;;;;4.20;4.00;;;;;;;0.82;100.00;94571.41;5075228;28;20162;-60
2023/01/16 06:41:40;;;;;;;4.20;3.90;;;;;;;0.81;100.00;94569.84;5074860;28;20196;-60
2023/01/16 06:44:06;;;;;;;5.77;5.23;;;;;;;0.76;100.00;94561.19;5073991;28;20291;-60
2023/01/16 06:46:31;;;;;;;4.80;4.43;;;;;;;0.84;100.00;94555.69;5057174;28;20268;-60
2023/01/16 06:48:57;;;;;;;4.87;4.57;;;;;;;0.80;100.00;94554.59;5074374;28;20299;-60
2023/01/16 06:51:22;;;;;;;4.43;4.13;;;;;;;0.88;100.00;94546.53;5073973;28;20675;-60
2023/01/16 06:53:48;;;;;;;4.20;3.90;;;;;;;0.86;100.00;94543.38;5073726;28;20208;-60
2023/01/16 06:56:13;;;;;;;4.07;3.87;;;;;;;0.87;100.00;94542.38;5074667;28;20184;-62
2023/01/16 06:58:39;;;;;;;3.93;3.73;;;;;;;0.95;100.00;94538.72;5071849;28;20722;-63
2023/01/16 07:01:04;;;;;;;4.27;4.07;;;;;;;1.03;100.00;94535.78;5073853;28;20170;-60
2023/01/16 07:03:30;;;;;;;5.10;4.70;;;;;;;1.08;100.00;94533.31;5036483;28;20294;-60
2023/01/16 07:05:55;;;;;;;4.23;4.00;;;;;;;1.07;100.00;94527.38;5054402;28;20155;-63
2023/01/16 07:08:21;;;;;;;4.03;3.70;;;;;;;1.21;100.00;94513.28;5054346;28;20162;-60
2023/01/16 07:10:46;;;;;;;4.43;4.20;;;;;;;1.14;100.00;94507.44;5054617;28;20162;-60
2023/01/16 07:13:12;;;;;;;4.43;4.23;;;;;;;1.23;100.00;94510.44;5058045;28;20205;-60
2023/01/16 07:24:03;;;;;;;6.40;4.47;;;;;;;1.35;100.00;94494.97;5080976;28;20235;-62
2023/01/16 07:26:30;;;;;;;5.57;4.30;;;;;;;1.44;99.73;94488.47;5077419;28;20189;-60
2023/01/16 07:28:57;;;;;;;4.80;4.50;;;;;;;1.43;99.74;94479.16;5073953;28;20189;-58
2023/01/16 07:31:23;;;;;;;6.73;4.27;;;;;;;1.48;99.72;94474.88;5073505;28;20189;-60
2023/01/16 07:33:48;;;;;;;4.40;4.20;;;;;;;1.74;100.00;94471.00;5073671;28;20193;-63
2023/01/16 07:36:14;;;;;;;8.90;5.70;;;;;;;3.87;100.00;94462.16;5072971;28;20176;-59
2023/01/16 07:38:40;;;;;;;5.83;5.23;;;;;;;2.51;95.71;94461.81;5072149;28;20252;-59
2023/01/16 07:41:06;;;;;;;4.53;4.13;;;;;;;2.16;95.41;94450.09;5072728;28;20712;-61
2023/01/16 07:43:31;;;;;;;3.80;3.50;;;;;;;1.97;95.70;94444.31;5072517;28;20213;-58
2023/01/16 07:45:56;;;;;;;4.10;3.80;;;;;;;1.90;96.24;94444.44;5072945;28;20606;-59
2023/01/16 07:48:23;;;;;;;3.23;3.13;;;;;;;1.76;96.55;94439.78;5073506;28;20185;-56
2023/01/16 07:50:53;;;;;;;3.67;3.53;;;;;;;1.75;97.22;94436.44;5073238;28;20594;-58
2023/01/16 07:53:22;;;;;;;4.57;3.73;;;;;;;1.74;96.37;94428.91;5073237;28;20681;-58
2023/01/16 07:55:49;;;;;;;6.70;6.40;;;;;;;1.83;95.28;94430.13;5052926;28;20212;-59
2023/01/16 07:58:15;;;;;;;4.10;3.83;;;;;;;1.97;94.15;94423.66;5068316;28;20891;-60
2023/01/16 08:00:41;;;;;;;5.73;5.33;;;;;;;1.90;94.42;94418.63;5053225;28;20523;-59
2023/01/16 08:03:06;;;;;;;4.00;3.80;;;;;;;1.93;93.73;94413.00;5068386;28;20219;-60
2023/01/16 08:05:32;;;;;;;4.07;3.87;;;;;;;1.94;94.24;94409.41;5093729;28;20173;-59
2023/01/16 08:07:57;;;;;;;4.03;3.73;;;;;;;2.00;92.78;94405.13;5093289;28;20221;-59
2023/01/16 08:10:23;;;;;;;6.23;3.90;;;;;;;1.97;92.26;94403.00;5093411;28;20567;-60
2023/01/16 08:12:48;;;;;;;4.93;4.53;;;;;;;2.04;91.82;94396.69;5093172;28;20204;-58
2023/01/16 08:15:14;;;;;;;4.37;4.00;;;;;;;2.00;92.73;94389.63;5077874;28;20215;-57
2023/01/16 08:17:40;;;;;;;3.27;3.13;;;;;;;2.05;91.14;94389.72;5052812;28;20211;-59
2023/01/16 08:20:07;;;;;;;4.17;3.87;;;;;;;2.11;90.62;94377.66;5053022;28;20177;-59
2023/01/16 08:22:32;;;;;;;6.83;6.43;;;;;;;2.09;90.51;94376.09;5052582;28;20674;-58
2023/01/16 08:24:58;;;;;;;3.33;3.07;;;;;;;2.08;88.91;94369.34;5052663;28;20194;-59
2023/01/16 08:27:23;;;;;;;3.67;3.37;;;;;;;2.17;88.71;94372.34;5058851;28;20182;-59
2023/01/16 08:29:49;;;;;;;3.17;3.00;;;;;;;2.21;88.04;94370.88;5070968;28;20188;-59
2023/01/16 08:32:14;;;;;;;3.60;3.40;;;;;;;2.25;87.08;94366.00;5059317;28;20655;-56
2023/01/16 08:34:41;;;;;;;3.03;2.77;;;;;;;2.24;87.50;94365.22;5093232;28;20169;-57
2023/01/16 08:37:10;;;;;;;3.17;2.97;;;;;;;2.33;86.82;94356.06;5093062;28;20168;-59
2023/01/16 08:39:38;;;;;;;3.43;3.23;;;;;;;2.37;85.16;94353.78;5071106;28;20200;-58
2023/01/16 08:53:03;;;;;;;3.90;3.60;;;;;;;2.53;82.34;94329.72;5072638;28;20644;-59
2023/01/16 08:55:28;;;;;;;4.10;3.90;;;;;;;2.61;81.42;94331.94;5072518;28;20215;-59
2023/01/16 09:00:20;;;;;;;5.27;4.97;;;;;;;2.71;80.93;94331.28;5071821;28;20259;-59
2023/01/16 09:02:46;;;;;;;5.23;4.93;;;;;;;2.71;81.63;94328.69;5093797;28;20295;-59
2023/01/16 09:05:13;;;;;;;5.53;5.23;;;;;;;2.82;81.20;94330.41;5063072;28;20190;-57
2023/01/16 09:07:40;;;;;;;6.97;6.43;;;;;;;2.77;81.77;94330.34;5053265;28;20182;-59
2023/01/16 09:10:06;;;;;;;6.30;5.97;;;;;;;2.76;80.51;94333.94;5053269;28;20181;-57
2023/01/16 09:15:15;;;;;;;5.53;5.10;;;;;;;2.78;80.49;94335.28;5053687;28;20165;-58
2023/01/16 09:17:41;;;;;;;5.83;5.43;;;;;;;2.70;80.82;94337.47;5078855;28;20177;-60
2023/01/16 09:20:07;;;;;;;4.43;4.20;;;;;;;2.69;81.64;94346.25;5096573;28;20169;-60
2023/01/16 09:22:33;;;;;;;4.90;4.70;;;;;;;2.70;81.89;94353.78;5096716;28;20239;-59
2023/01/16 09:24:58;;;;;;;4.50;4.23;;;;;;;2.82;81.22;94369.19;5096370;28;20245;-60
2023/01/16 09:27:24;;;;;;;4.37;4.17;;;;;;;2.82;80.97;94371.78;5083033;28;20209;-60
2023/01/16 09:29:50;;;;;;;4.90;4.60;;;;;;;2.81;81.06;94367.63;5075789;28;20664;-60
2023/01/16 09:32:16;;;;;;;4.43;4.13;;;;;;;2.85;79.23;94359.16;5078840;28;20620;-60
2023/01/16 09:34:42;;;;;;;5.03;4.73;;;;;;;2.92;78.83;94351.22;5075705;28;20629;-60
2023/01/16 09:37:08;;;;;;;5.90;5.50;;;;;;;2.91;76.66;94341.88;5076351;28;20169;-59
2023/01/16 09:39:34;;;;;;;5.97;5.67;;;;;;;3.06;75.25;94330.97;5076110;28;20596;-60
2023/01/16 09:45:16;;;;;;;4.63;4.43;;;;;;;3.26;73.95;94319.03;5075455;28;20286;-58
2023/01/16 09:47:49;;;;;;;4.50;4.30;;;;;;;3.30;73.78;94312.34;5076170;28;20169;-58
2023/01/16 09:50:32;;;;;;;5.23;4.93;;;;;;;3.34;73.96;94318.59;5057895;28;20556;-60
2023/01/16 09:58:42;;;;;;;3.67;3.37;;;;;;;3.42;73.24;94314.81;5073477;28;20239;-58
2023/01/16 10:01:13;;;;;;;3.37;3.17;;;;;;;3.47;72.55;94301.13;5074459;28;20173;-57
2023/01/16 10:03:42;;;;;;;3.20;3.10;;;;;;;3.44;71.87;94297.25;5087468;28;20209;-57
2023/01/16 10:06:18;;;;;;;3.27;3.10;;;;;;;3.46;72.80;94300.34;5095614;28;20247;-57
2023/01/16 10:09:16;;;;;;;3.63;3.43;;;;;;;3.49;72.14;94292.13;5055654;28;20653;-59
2023/01/16 10:12:09;;;;;;;3.40;3.30;;;;;;;3.50;71.30;94288.50;5029321;28;20213;-58
2023/01/16 10:14:53;;;;;;;3.87;3.73;;;;;;;3.57;70.31;94281.31;5055235;28;20173;-58
2023/01/16 10:17:44;;;;;;;5.03;3.60;;;;;;;3.50;70.30;94265.19;5055585;28;20177;-57
2023/01/16 10:20:27;;;;;;;5.67;5.43;;;;;;;3.44;69.77;94268.75;5069711;28;20173;-54
2023/01/16 10:23:18;;;;;;;6.53;6.13;;;;;;;3.55;67.94;94247.13;5075305;28;20216;-57
2023/01/16 10:26:04;;;;;;;5.40;5.10;;;;;;;3.52;67.81;94239.81;5074303;28;20181;-56
2023/01/16 10:28:53;;;;;;;7.03;6.73;;;;;;;3.57;67.02;94226.94;5066413;28;20199;-54
2023/01/16 10:31:34;;;;;;;4.27;4.07;;;;;;;3.64;65.68;94232.69;5076209;28;20268;-60
2023/01/16 10:34:33;;;;;;;4.07;3.87;;;;;;;3.62;64.37;94228.81;5095111;28;20165;-57
2023/01/16 10:37:00;;;;;;;3.20;3.10;;;;;;;3.66;64.45;94232.44;5060971;28;20200;-59
2023/01/16 10:39:37;;;;;;;3.17;2.97;;;;;;;3.76;63.89;94222.16;5095708;28;20542;-58
2023/01/16 10:50:56;;;;;;;2.83;2.67;;;;;;;3.98;64.11;94207.31;5095122;28;20197;-60
2023/01/16 10:53:22;;;;;;;3.50;3.30;;;;;;;4.02;64.11;94190.22;5094964;28;20652;-57
2023/01/16 10:55:51;;;;;;;3.13;3.03;;;;;;;4.08;66.52;94178.09;5094962;28;20219;-60
2023/01/16 10:58:22;;;;;;;4.70;4.50;;;;;;;4.17;67.17;94177.38;5089447;28;21392;-61
2023/01/16 11:00:49;;;;;;;5.67;5.40;;;;;;;4.18;65.90;94188.50;5074056;28;20653;-60
2023/01/16 11:03:28;;;;;;;4.50;4.30;;;;;;;4.18;64.74;94165.97;5074178;28;20269;-60
2023/01/16 11:06:24;;;;;;;3.13;3.03;;;;;;;4.12;64.19;94161.78;5056316;28;20656;-60
2023/01/16 11:09:04;;;;;;;3.67;3.47;;;;;;;4.17;64.93;94158.47;5061294;28;20216;-60
2023/01/16 11:20:34;;;;;;;14.77;13.77;;;;;;;4.37;77.75;94147.41;5072048;28;20180;-60
2023/01/16 11:23:12;;;;;;;13.17;12.57;;;;;;;4.38;77.80;94141.97;5053597;28;20201;-59
2023/01/16 11:25:37;;;;;;;6.17;5.77;;;;;;;4.38;80.13;94131.59;5073498;28;20196;-60
2023/01/16 11:28:06;;;;;;;48.77;46.23;;;;;;;4.34;82.60;94122.00;5094199;28;20621;-56
2023/01/16 11:30:42;;;;;;;3.93;3.83;;;;;;;4.42;82.61;94111.91;5085623;28;20216;-60
2023/01/16 11:33:19;;;;;;;6.40;6.13;;;;;;;4.35;83.17;94095.78;5074202;28;20207;-59
2023/01/16 11:35:54;;;;;;;4.83;4.63;;;;;;;4.37;82.91;94096.31;5073873;28;20161;-57
2023/01/16 11:38:21;;;;;;;10.23;9.73;;;;;;;4.37;82.23;94079.97;5072955;28;20622;-60
2023/01/16 11:40:49;;;;;;;7.17;6.87;;;;;;;4.47;81.71;94069.63;5073145;28;20185;-58
2023/01/16 11:46:11;;;;;;;5.27;5.07;;;;;;;4.38;81.22;94050.44;5073844;28;20558;-60
2023/01/16 11:48:44;;;;;;;5.37;5.07;;;;;;;4.45;81.99;94046.56;5073523;28;20200;-58
2023/01/16 11:51:20;;;;;;;5.87;5.57;;;;;;;4.43;81.73;94047.84;5073478;28;20182;-57
2023/01/16 11:53:47;;;;;;;7.03;6.63;;;;;;;4.51;81.51;94024.78;5073817;28;20177;-60
2023/01/16 11:56:22;;;;;;;4.93;4.73;;;;;;;4.53;82.18;94027.13;5073179;28;20276;-60
2023/01/16 11:59:24;;;;;;;4.07;3.87;;;;;;;4.57;82.85;94012.59;5070948;28;20224;-64
2023/01/16 12:02:18;;;;;;;3.23;3.07;;;;;;;4.66;82.98;93999.91;5073750;28;20263;-61
2023/01/16 12:08:29;;;;;;;4.60;4.33;;;;;;;4.79;83.67;93989.03;5073655;28;20268;-60
2023/01/16 12:11:34;;;;;;;4.00;3.87;;;;;;;4.79;83.57;93973.47;5073444;28;20165;-58
2023/01/16 12:14:33;;;;;;;3.37;3.27;;;;;;;4.89;83.90;93968.28;5072783;28;20189;-60
2023/01/16 12:17:28;;;;;;;3.00;2.90;;;;;;;4.88;83.41;93961.53;5052907;28;20167;-59
2023/01/16 12:20:08;;;;;;;2.90;2.80;;;;;;;4.98;83.45;93954.50;5076029;28;20540;-58
2023/01/16 12:22:42;;;;;;;3.03;2.93;;;;;;;5.03;82.73;93948.53;5067223;28;20304;-60
2023/01/16 12:25:46;;;;;;;3.47;3.27;;;;;;;5.13;81.99;93950.31;5066154;28;20201;-59
2023/01/16 12:28:24;;;;;;;2.63;2.53;;;;;;;5.05;82.35;93935.31;5073354;28;20176;-60
2023/01/16 12:31:35;;;;;;;3.23;3.13;;;;;;;4.99;82.38;93926.75;5072975;28;20696;-60
2023/01/16 12:34:09;;;;;;;2.90;2.80;;;;;;;5.07;82.27;93918.41;5074352;28;20173;-58
2023/01/16 12:36:59;;;;;;;3.50;3.30;;;;;;;5.17;81.96;93909.84;5081239;28;20175;-56
2023/01/16 12:39:53;;;;;;;3.03;2.93;;;;;;;5.27;81.35;93908.00;5093621;28;20184;-55
2023/01/16 12:45:43;;;;;;;3.27;3.17;;;;;;;5.36;81.58;93914.19;5072643;28;20270;-60
2023/01/16 12:48:34;;;;;;;3.17;3.07;;;;;;;5.48;80.60;93908.69;5072888;28;20180;-61
2023/01/16 12:51:14;;;;;;;3.17;3.00;;;;;;;5.53;81.32;93900.88;5072186;28;20195;-60
2023/01/16 12:53:55;;;;;;;5.00;4.60;;;;;;;5.59;79.61;93886.06;5071861;28;20334;-60
2023/01/16 12:56:26;;;;;;;3.83;3.63;;;;;;;5.50;79.91;93866.88;5072277;28;20185;-60
2023/01/16 12:59:01;;;;;;;5.03;4.63;;;;;;;5.62;79.79;93882.94;5069983;28;20229;-60
2023/01/16 13:01:49;;;;;;;4.30;4.13;;;;;;;5.68;80.06;93861.09;5072011;28;20169;-60